createdAt,value
2022-10-08T00:00:57.474Z,14.13
2022-10-08T00:03:27.498Z,14.15
2022-10-08T00:06:18.438Z,14.24
2022-10-08T00:08:49.413Z,14.26
2022-10-08T00:11:20.111Z,14.21
2022-10-08T00:13:48.491Z,14.17
2022-10-08T00:16:32.242Z,14.20
2022-10-08T00:19:01.999Z,14.17
2022-10-08T00:21:31.467Z,14.18
2022-10-08T00:23:58.944Z,14.04
2022-10-08T00:26:27.326Z,14.07
2022-10-08T00:28:56.558Z,14.08
2022-10-08T00:31:26.434Z,14.00
2022-10-08T00:33:55.625Z,13.97
2022-10-08T00:36:24.206Z,13.96
2022-10-08T00:38:58.173Z,13.96
2022-10-08T00:41:26.640Z,13.95
2022-10-08T00:43:56.453Z,13.92
2022-10-08T00:46:41.478Z,13.91
2022-10-08T00:49:11.482Z,13.86
2022-10-08T00:51:50.970Z,13.82
2022-10-08T00:54:19.630Z,13.74
2022-10-08T00:56:50.361Z,13.69
2022-10-08T00:59:17.395Z,13.62
2022-10-08T01:01:44.659Z,13.56
2022-10-08T01:04:13.364Z,13.57
2022-10-08T01:06:57.952Z,13.51
2022-10-08T01:09:35.456Z,13.49
2022-10-08T01:12:11.074Z,13.43
2022-10-08T01:14:57.702Z,13.43
2022-10-08T01:17:34.774Z,13.32
2022-10-08T01:20:07.281Z,13.31
2022-10-08T01:22:42.642Z,13.30
2022-10-08T01:25:33.851Z,13.22
2022-10-08T01:28:28.391Z,13.24
2022-10-08T01:31:18.068Z,13.23
2022-10-08T01:33:47.459Z,13.25
2022-10-08T01:36:17.935Z,13.25
2022-10-08T01:38:51.310Z,13.26
2022-10-08T01:41:20.193Z,13.22
2022-10-08T01:43:52.976Z,13.27
2022-10-08T01:46:25.230Z,13.24
2022-10-08T01:48:53.758Z,13.32
2022-10-08T01:51:33.056Z,13.33
2022-10-08T01:54:02.951Z,13.28
2022-10-08T01:56:33.267Z,13.35
2022-10-08T01:59:02.907Z,13.44
2022-10-08T02:01:43.602Z,13.35
2022-10-08T02:04:28.868Z,13.28
2022-10-08T02:06:59.224Z,13.33
2022-10-08T02:09:26.895Z,13.45
2022-10-08T02:11:54.107Z,13.43
2022-10-08T02:14:25.802Z,13.52
2022-10-08T02:17:16.462Z,13.54
2022-10-08T02:20:03.596Z,13.58
2022-10-08T02:22:37.712Z,13.68
2022-10-08T02:25:22.156Z,13.73
2022-10-08T02:28:11.546Z,13.79
2022-10-08T02:30:48.640Z,13.75
2022-10-08T02:33:22.447Z,13.74
2022-10-08T02:35:57.054Z,13.69
2022-10-08T02:38:30.205Z,13.78
2022-10-08T02:40:59.794Z,13.80
2022-10-08T02:43:31.510Z,13.77
2022-10-08T02:46:10.813Z,13.80
2022-10-08T02:48:42.427Z,13.79
2022-10-08T02:51:14.098Z,13.79
2022-10-08T02:53:41.642Z,13.84
2022-10-08T02:56:16.880Z,13.88
2022-10-08T02:58:43.979Z,13.91
2022-10-08T03:01:26.595Z,13.92
2022-10-08T03:04:18.122Z,13.97
2022-10-08T03:06:45.600Z,13.97
2022-10-08T03:09:14.863Z,13.98
2022-10-08T03:11:41.631Z,13.97
2022-10-08T03:14:12.432Z,14.02
2022-10-08T03:16:42.069Z,14.01
2022-10-08T03:19:10.958Z,14.08
2022-10-08T03:21:39.435Z,14.07
2022-10-08T03:24:07.157Z,14.07
2022-10-08T03:26:33.579Z,14.12
2022-10-08T03:29:00.034Z,14.13
2022-10-08T03:31:26.450Z,14.12
2022-10-08T03:33:53.922Z,14.10
2022-10-08T03:36:22.090Z,14.13
2022-10-08T03:38:49.653Z,14.14
2022-10-08T03:41:17.039Z,14.18
2022-10-08T03:43:43.781Z,14.14
2022-10-08T03:46:11.748Z,14.18
2022-10-08T03:48:38.609Z,14.18
2022-10-08T03:51:11.601Z,14.18
2022-10-08T03:53:39.705Z,14.17
2022-10-08T03:56:09.035Z,14.18
2022-10-08T03:58:35.419Z,14.18
2022-10-08T04:01:05.346Z,14.10
2022-10-08T04:03:32.654Z,14.19
2022-10-08T04:05:59.750Z,14.18
2022-10-08T04:08:26.420Z,14.09
2022-10-08T04:10:53.318Z,14.13
2022-10-08T04:13:20.371Z,14.08
2022-10-08T04:15:48.274Z,14.16
2022-10-08T04:18:14.871Z,14.15
2022-10-08T04:20:42.292Z,14.13
2022-10-08T04:23:09.451Z,14.19
2022-10-08T04:25:36.439Z,14.18
2022-10-08T04:28:04.285Z,14.19
2022-10-08T04:30:31.866Z,14.21
2022-10-08T04:32:58.865Z,14.16
2022-10-08T04:35:25.627Z,14.18
2022-10-08T04:37:52.020Z,14.21
2022-10-08T04:40:18.405Z,14.19
2022-10-08T04:42:45.338Z,14.21
2022-10-08T04:45:11.883Z,14.15
2022-10-08T04:47:38.400Z,14.15
2022-10-08T04:50:05.249Z,14.14
2022-10-08T04:52:32.058Z,14.15
2022-10-08T04:54:58.415Z,14.10
2022-10-08T04:57:24.780Z,14.13
2022-10-08T05:00:13.600Z,14.11
2022-10-08T05:02:37.732Z,14.05
2022-10-08T05:05:04.510Z,14.08
2022-10-08T05:07:30.952Z,14.07
2022-10-08T05:09:57.345Z,14.06
2022-10-08T05:12:23.837Z,14.07
2022-10-08T05:14:50.195Z,14.07
2022-10-08T05:17:16.584Z,14.05
2022-10-08T05:19:43.043Z,14.03
2022-10-08T05:22:09.449Z,14.01
2022-10-08T05:24:35.954Z,13.98
2022-10-08T05:27:02.412Z,14.03
2022-10-08T05:29:30.348Z,13.99
2022-10-08T05:31:57.140Z,14.01
2022-10-08T05:34:23.776Z,13.95
2022-10-08T05:36:50.300Z,13.96
2022-10-08T05:39:17.251Z,13.84
2022-10-08T05:41:43.770Z,13.91
2022-10-08T05:44:11.293Z,13.89
2022-10-08T05:46:38.735Z,13.84
2022-10-08T05:49:08.170Z,13.80
2022-10-08T05:51:35.080Z,13.78
2022-10-08T05:54:01.525Z,13.65
2022-10-08T05:56:29.044Z,13.69
2022-10-08T05:58:55.788Z,13.57
2022-10-08T06:01:28.216Z,13.63
2022-10-08T06:03:57.309Z,13.56
2022-10-08T06:06:24.436Z,13.52
2022-10-08T06:08:56.568Z,13.45
2022-10-08T06:11:23.007Z,13.46
2022-10-08T06:13:53.779Z,13.46
2022-10-08T06:16:20.995Z,13.53
2022-10-08T06:18:47.592Z,13.51
2022-10-08T06:21:19.445Z,13.53
2022-10-08T06:24:00.018Z,13.56
2022-10-08T06:26:35.106Z,13.55
2022-10-08T06:29:02.885Z,13.64
2022-10-08T06:31:29.332Z,13.62
2022-10-08T06:34:08.361Z,13.69
2022-10-08T06:36:41.469Z,13.67
2022-10-08T06:39:11.653Z,13.80
2022-10-08T06:41:38.443Z,13.84
2022-10-08T06:44:07.275Z,13.75
2022-10-08T06:46:34.459Z,13.91
2022-10-08T06:49:05.949Z,13.92
2022-10-08T06:51:33.118Z,13.93
2022-10-08T06:54:07.827Z,13.96
2022-10-08T06:56:36.052Z,13.91
2022-10-08T06:59:02.838Z,13.87
2022-10-08T07:01:33.372Z,13.87
2022-10-08T07:04:05.430Z,13.87
2022-10-08T07:06:34.870Z,13.86
2022-10-08T07:09:02.356Z,13.80
2022-10-08T07:11:30.121Z,13.89
2022-10-08T07:13:56.967Z,13.86
2022-10-08T07:16:25.720Z,13.86
2022-10-08T07:18:53.726Z,13.97
2022-10-08T07:21:21.830Z,13.97
2022-10-08T07:23:48.783Z,14.04
2022-10-08T07:26:20.725Z,14.06
2022-10-08T07:28:53.554Z,14.13
2022-10-08T07:31:28.023Z,14.20
2022-10-08T07:33:54.849Z,14.17
2022-10-08T07:36:22.709Z,14.29
2022-10-08T07:38:56.542Z,14.37
2022-10-08T07:41:23.280Z,14.49
2022-10-08T07:43:52.373Z,14.60
2022-10-08T07:46:18.860Z,14.67
2022-10-08T07:48:45.574Z,14.73
2022-10-08T07:51:14.498Z,14.83
2022-10-08T07:53:41.320Z,14.87
2022-10-08T07:56:09.782Z,15.02
2022-10-08T07:58:36.719Z,15.03
2022-10-08T08:01:06.332Z,15.19
2022-10-08T08:03:33.257Z,15.19
2022-10-08T08:06:09.195Z,15.38
2022-10-08T08:08:37.722Z,15.41
2022-10-08T08:11:06.531Z,15.49
2022-10-08T08:13:36.980Z,15.51
2022-10-08T08:16:07.005Z,15.56
2022-10-08T08:18:36.953Z,15.60
2022-10-08T08:21:08.978Z,15.57
2022-10-08T08:23:38.532Z,15.65
2022-10-08T08:26:10.958Z,15.72
2022-10-08T08:28:37.741Z,15.70
2022-10-08T08:31:25.495Z,15.83
2022-10-08T08:33:55.335Z,15.87
2022-10-08T08:36:25.717Z,15.96
2022-10-08T08:38:52.236Z,16.02
2022-10-08T08:41:51.092Z,16.14
2022-10-08T08:44:24.599Z,16.23
2022-10-08T08:47:17.990Z,16.35
2022-10-08T08:49:50.775Z,16.39
2022-10-08T08:52:21.376Z,16.62
2022-10-08T08:54:49.527Z,16.78
2022-10-08T08:57:23.629Z,16.92
2022-10-08T08:59:56.437Z,17.12
2022-10-08T09:02:28.514Z,17.27
2022-10-08T09:05:00.482Z,17.34
2022-10-08T09:07:33.617Z,17.39
2022-10-08T09:10:05.450Z,17.34
2022-10-08T09:12:38.856Z,17.39
2022-10-08T09:15:19.909Z,17.32
2022-10-08T09:17:50.914Z,17.34
2022-10-08T09:20:24.515Z,17.42
2022-10-08T09:22:51.969Z,17.48
2022-10-08T09:25:22.485Z,17.53
2022-10-08T09:27:55.474Z,17.58
2022-10-08T09:30:24.634Z,17.65
2022-10-08T09:32:53.182Z,17.76
2022-10-08T09:35:19.739Z,17.75
2022-10-08T09:37:48.268Z,17.95
2022-10-08T09:40:23.798Z,18.16
2022-10-08T09:43:10.974Z,18.28
2022-10-08T09:45:48.668Z,18.39
2022-10-08T09:48:33.067Z,18.41
2022-10-08T09:51:12.467Z,18.55
2022-10-08T09:53:46.205Z,18.66
2022-10-08T09:56:14.759Z,18.71
2022-10-08T09:58:52.253Z,18.92
2022-10-08T10:01:19.349Z,19.06
2022-10-08T10:04:04.348Z,19.23
2022-10-08T10:06:38.990Z,19.37
2022-10-08T10:09:11.549Z,19.56
2022-10-08T10:11:42.876Z,19.69
2022-10-08T10:14:35.013Z,19.93
2022-10-08T10:17:13.987Z,20.16
2022-10-08T10:19:50.771Z,20.28
2022-10-08T10:22:58.284Z,20.43
2022-10-08T10:25:43.392Z,20.57
2022-10-08T10:28:28.821Z,20.61
2022-10-08T10:31:06.796Z,20.66
2022-10-08T10:33:37.470Z,20.75
2022-10-08T10:36:09.409Z,20.71
2022-10-08T10:38:45.114Z,20.68
2022-10-08T10:41:14.240Z,20.67
2022-10-08T10:43:49.859Z,20.62
2022-10-08T10:46:33.660Z,20.54
2022-10-08T10:49:00.541Z,20.48
2022-10-08T10:51:29.573Z,20.50
2022-10-08T10:54:17.698Z,20.61
2022-10-08T10:57:02.434Z,20.75
2022-10-08T11:00:00.040Z,20.88
2022-10-08T11:02:40.090Z,20.82
2022-10-08T11:05:18.266Z,21.05
2022-10-08T11:08:18.445Z,20.82
2022-10-08T11:11:04.123Z,20.82
2022-10-08T11:13:33.423Z,19.83
2022-10-08T11:16:02.618Z,18.94
2022-10-08T11:18:47.489Z,18.07
2022-10-08T11:21:40.037Z,17.09
2022-10-08T11:24:34.794Z,16.38
2022-10-08T11:27:21.610Z,15.72
2022-10-08T11:30:06.141Z,15.29
2022-10-08T11:32:33.909Z,14.84
2022-10-08T11:35:00.485Z,14.56
2022-10-08T11:37:38.861Z,14.41
2022-10-08T11:40:31.293Z,14.36
2022-10-08T11:43:09.825Z,14.40
2022-10-08T11:45:39.902Z,14.49
2022-10-08T11:48:32.088Z,14.84
2022-10-08T11:51:38.868Z,15.17
2022-10-08T11:54:23.177Z,15.43
2022-10-08T11:56:52.688Z,15.64
2022-10-08T11:59:41.637Z,15.96
2022-10-08T12:02:33.305Z,16.34
2022-10-08T12:05:32.807Z,16.66
2022-10-08T12:08:02.845Z,16.91
2022-10-08T12:10:38.593Z,17.17
2022-10-08T12:13:27.586Z,17.43
2022-10-08T12:15:55.373Z,17.51
2022-10-08T12:18:26.496Z,17.81
2022-10-08T12:21:17.741Z,18.09
2022-10-08T12:23:44.823Z,18.20
2022-10-08T12:26:13.993Z,18.22
2022-10-08T12:28:47.288Z,18.34
2022-10-08T12:31:28.197Z,18.24
2022-10-08T12:34:10.321Z,18.14
2022-10-08T12:37:01.949Z,18.16
2022-10-08T12:39:42.560Z,18.15
2022-10-08T12:42:21.214Z,18.18
2022-10-08T12:45:16.597Z,18.38
2022-10-08T12:48:14.884Z,18.52
2022-10-08T12:50:58.348Z,18.63
2022-10-08T12:53:25.526Z,18.79
2022-10-08T12:55:56.684Z,18.95
2022-10-08T12:58:26.540Z,19.14
2022-10-08T13:00:57.247Z,19.28
2022-10-08T13:03:25.389Z,19.35
2022-10-08T13:05:56.518Z,19.43
2022-10-08T13:08:38.656Z,19.63
2022-10-08T13:11:09.429Z,19.62
2022-10-08T13:13:38.766Z,19.62
2022-10-08T13:16:07.971Z,19.50
2022-10-08T13:18:36.415Z,19.38
2022-10-08T13:21:22.511Z,19.23
2022-10-08T13:23:48.927Z,19.06
2022-10-08T13:26:42.527Z,18.92
2022-10-08T13:29:23.975Z,18.66
2022-10-08T13:32:14.953Z,18.28
2022-10-08T13:34:44.852Z,17.75
2022-10-08T13:37:15.599Z,17.41
2022-10-08T13:39:49.771Z,17.08
2022-10-08T13:42:18.928Z,16.80
2022-10-08T13:44:45.460Z,16.49
2022-10-08T13:47:13.523Z,16.43
2022-10-08T13:49:40.751Z,16.23
2022-10-08T13:52:13.689Z,16.07
2022-10-08T13:54:42.336Z,15.91
2022-10-08T13:57:09.924Z,15.87
2022-10-08T13:59:36.395Z,15.91
2022-10-08T14:02:02.961Z,16.01
2022-10-08T14:04:29.528Z,16.12
2022-10-08T14:06:57.700Z,16.33
2022-10-08T14:09:26.815Z,16.45
2022-10-08T14:11:56.662Z,16.50
2022-10-08T14:14:24.179Z,16.52
2022-10-08T14:16:51.647Z,16.39
2022-10-08T14:19:20.513Z,16.39
2022-10-08T14:21:49.206Z,16.33
2022-10-08T14:24:16.002Z,16.17
2022-10-08T14:26:42.463Z,16.18
2022-10-08T14:29:08.868Z,16.20
2022-10-08T14:31:35.421Z,16.28
2022-10-08T14:34:02.176Z,16.47
2022-10-08T14:36:35.210Z,16.70
2022-10-08T14:39:01.658Z,16.89
2022-10-08T14:41:28.915Z,17.19
2022-10-08T14:43:55.334Z,17.40
2022-10-08T14:46:21.837Z,17.65
2022-10-08T14:48:48.257Z,17.90
2022-10-08T14:51:17.379Z,18.08
2022-10-08T14:54:10.346Z,18.36
2022-10-08T14:59:41.681Z,18.94
2022-10-08T15:02:27.592Z,19.09
2022-10-08T15:04:56.823Z,19.25
2022-10-08T15:07:26.255Z,19.44
2022-10-08T15:09:56.284Z,19.60
2022-10-08T15:12:32.064Z,19.64
2022-10-08T15:15:11.821Z,20.15
2022-10-08T15:17:47.460Z,19.99
2022-10-08T15:20:22.598Z,20.06
2022-10-08T15:23:03.485Z,20.00
2022-10-08T15:25:37.177Z,20.20
2022-10-08T15:28:15.853Z,20.08
2022-10-08T15:30:51.774Z,19.78
2022-10-08T15:33:26.434Z,19.64
2022-10-08T15:35:58.292Z,19.04
2022-10-08T15:38:37.775Z,18.04
2022-10-08T15:41:11.137Z,16.89
2022-10-08T15:43:41.400Z,16.53
2022-10-08T15:46:19.640Z,16.30
2022-10-08T15:48:59.994Z,15.51
2022-10-08T15:51:33.325Z,15.21
2022-10-08T15:54:06.487Z,14.44
2022-10-08T15:56:41.172Z,14.13
2022-10-08T15:59:15.221Z,14.05
2022-10-08T16:01:53.465Z,13.53
2022-10-08T16:04:24.163Z,13.39
2022-10-08T16:07:03.939Z,13.24
2022-10-08T16:09:41.241Z,13.34
2022-10-08T16:12:16.059Z,13.29
2022-10-08T16:14:47.753Z,12.88
2022-10-08T16:17:20.883Z,12.81
2022-10-08T16:19:51.792Z,12.67
2022-10-08T16:22:23.303Z,13.00
2022-10-08T16:24:58.009Z,12.97
2022-10-08T16:27:35.205Z,12.42
2022-10-08T16:30:10.359Z,12.89
2022-10-08T16:32:47.939Z,12.51
2022-10-08T16:35:20.274Z,12.55
2022-10-08T16:37:52.507Z,12.46
2022-10-08T16:40:25.274Z,12.52
2022-10-08T16:42:54.445Z,12.43
2022-10-08T16:45:24.428Z,12.27
2022-10-08T16:47:56.537Z,12.36
2022-10-08T16:50:26.233Z,12.53
2022-10-08T16:53:06.464Z,12.21
2022-10-08T16:55:41.570Z,12.45
2022-10-08T16:58:24.667Z,12.61
2022-10-08T17:01:00.823Z,12.45
2022-10-08T17:03:27.329Z,12.49
2022-10-08T17:05:53.701Z,12.58
2022-10-08T17:08:20.111Z,12.49
2022-10-08T17:10:46.472Z,12.53
2022-10-08T17:13:13.501Z,12.47
2022-10-08T17:15:39.895Z,12.41
2022-10-08T17:18:06.307Z,12.39
2022-10-08T17:20:32.766Z,12.31
2022-10-08T17:22:59.140Z,12.29
2022-10-08T17:25:25.547Z,12.20
2022-10-08T17:27:51.978Z,12.16
2022-10-08T17:30:18.392Z,12.06
2022-10-08T17:32:45.082Z,12.04
2022-10-08T17:35:11.636Z,11.97
2022-10-08T17:37:38.056Z,11.92
2022-10-08T17:40:04.796Z,11.84
2022-10-08T17:42:31.309Z,11.83
2022-10-08T17:44:58.570Z,11.80
2022-10-08T17:47:29.076Z,11.76
2022-10-08T17:49:55.713Z,11.73
2022-10-08T17:52:22.062Z,11.71
2022-10-08T17:54:48.444Z,11.67
2022-10-08T17:57:14.787Z,11.73
2022-10-08T17:59:41.236Z,11.75
2022-10-08T18:02:08.546Z,11.68
2022-10-08T18:04:35.006Z,11.76
2022-10-08T18:07:03.654Z,11.77
2022-10-08T18:09:30.153Z,11.75
2022-10-08T18:11:56.541Z,11.71
2022-10-08T18:14:23.268Z,11.69
2022-10-08T18:16:50.150Z,11.64
2022-10-08T18:19:17.803Z,11.59
2022-10-08T18:21:44.243Z,11.56
2022-10-08T18:24:11.141Z,11.46
2022-10-08T18:26:37.533Z,11.47
2022-10-08T18:29:11.577Z,11.45
2022-10-08T18:31:40.055Z,11.42
2022-10-08T18:34:08.927Z,11.33
2022-10-08T18:36:37.768Z,11.41
2022-10-08T18:39:07.559Z,11.40
2022-10-08T18:41:41.132Z,11.40
2022-10-08T18:44:10.833Z,11.42
2022-10-08T18:46:38.515Z,11.44
2022-10-08T18:49:06.126Z,11.43
2022-10-08T18:51:34.063Z,11.44
2022-10-08T18:54:02.206Z,11.45
2022-10-08T18:56:35.596Z,11.47
2022-10-08T18:59:04.933Z,11.49
2022-10-08T19:01:34.289Z,11.54
2022-10-08T19:04:02.528Z,11.50
2022-10-08T19:06:32.284Z,11.52
2022-10-08T19:09:00.025Z,11.62
2022-10-08T19:11:33.073Z,11.61
2022-10-08T19:14:06.781Z,11.67
2022-10-08T19:16:36.060Z,11.67
2022-10-08T19:19:05.178Z,11.69
2022-10-08T19:21:33.558Z,11.70
2022-10-08T19:24:00.831Z,11.76
2022-10-08T19:26:28.585Z,11.75
2022-10-08T19:28:55.233Z,11.81
2022-10-08T19:31:27.778Z,11.78
2022-10-08T19:33:57.734Z,11.81
2022-10-08T19:36:25.515Z,11.77
2022-10-08T19:39:04.718Z,11.78
2022-10-08T19:41:31.995Z,11.71
2022-10-08T19:43:59.421Z,11.65
2022-10-08T19:46:27.142Z,11.59
2022-10-08T19:48:56.283Z,11.59
2022-10-08T19:51:23.648Z,11.56
2022-10-08T19:53:50.435Z,11.44
2022-10-08T19:56:20.866Z,11.45
2022-10-08T19:58:55.519Z,11.40
2022-10-08T20:01:27.647Z,11.31
2022-10-08T20:03:55.859Z,11.27
2022-10-08T20:06:25.175Z,11.21
2022-10-08T20:08:57.402Z,11.15
2022-10-08T20:11:24.176Z,11.16
2022-10-08T20:13:52.218Z,11.14
2022-10-08T20:16:21.705Z,11.12
2022-10-08T20:18:53.312Z,11.11
2022-10-08T20:21:20.867Z,11.07
2022-10-08T20:23:47.991Z,11.03
2022-10-08T20:26:20.277Z,10.99
2022-10-08T20:28:48.832Z,10.97
2022-10-08T20:31:21.624Z,10.98
2022-10-08T20:33:48.831Z,11.00
2022-10-08T20:36:17.605Z,10.93
2022-10-08T20:38:44.101Z,11.00
2022-10-08T20:41:10.941Z,10.92
2022-10-08T20:43:38.973Z,10.96
2022-10-08T20:46:08.229Z,11.00
2022-10-08T20:48:36.316Z,10.94
2022-10-08T20:51:05.556Z,10.99
2022-10-08T20:53:33.123Z,10.98
2022-10-08T20:56:11.741Z,10.92
2022-10-08T20:58:38.752Z,10.92
2022-10-08T21:01:16.847Z,10.87
2022-10-08T21:03:44.477Z,10.90
2022-10-08T21:06:14.693Z,10.91
2022-10-08T21:08:43.553Z,10.91
2022-10-08T21:11:13.139Z,10.85
2022-10-08T21:13:40.261Z,10.93
2022-10-08T21:16:09.598Z,10.83
2022-10-08T21:18:36.930Z,10.91
2022-10-08T21:21:11.839Z,10.91
2022-10-08T21:23:38.852Z,10.92
2022-10-08T21:26:07.131Z,10.90
2022-10-08T21:28:33.985Z,10.91
2022-10-08T21:31:03.955Z,10.84
2022-10-08T21:33:30.778Z,11.01
2022-10-08T21:35:58.037Z,10.91
2022-10-08T21:38:24.826Z,10.81
2022-10-08T21:40:59.695Z,10.83
2022-10-08T21:43:26.113Z,10.78
2022-10-08T21:45:55.836Z,10.82
2022-10-08T21:48:23.750Z,10.82
2022-10-08T21:51:02.208Z,10.83
2022-10-08T21:53:31.266Z,10.78
2022-10-08T21:56:03.739Z,10.79
2022-10-08T21:58:34.759Z,10.78
2022-10-08T22:01:01.320Z,10.75
2022-10-08T22:03:28.072Z,10.72
2022-10-08T22:05:59.676Z,10.75
2022-10-08T22:08:28.206Z,10.73
2022-10-08T22:10:55.566Z,10.67
2022-10-08T22:13:22.429Z,10.71
2022-10-08T22:15:58.141Z,10.73
2022-10-08T22:18:27.328Z,10.72
2022-10-08T22:20:53.964Z,10.72
2022-10-08T22:23:21.703Z,10.68
2022-10-08T22:25:54.965Z,10.71
2022-10-08T22:28:22.182Z,10.65
2022-10-08T22:30:49.192Z,10.66
2022-10-08T22:33:16.250Z,10.68
2022-10-08T22:35:43.496Z,10.67
2022-10-08T22:38:10.434Z,10.66
2022-10-08T22:40:37.131Z,10.66
2022-10-08T22:43:04.070Z,10.65
2022-10-08T22:45:30.720Z,10.63
2022-10-08T22:47:57.118Z,10.64
2022-10-08T22:50:23.473Z,10.63
2022-10-08T22:52:50.277Z,10.62
2022-10-08T22:55:17.460Z,10.58
2022-10-08T22:57:44.074Z,10.51
2022-10-08T23:00:11.319Z,10.55
2022-10-08T23:02:37.681Z,10.58
2022-10-08T23:05:04.491Z,10.58
2022-10-08T23:07:30.889Z,10.58
2022-10-08T23:09:57.669Z,10.52
2022-10-08T23:12:24.166Z,10.55
2022-10-08T23:14:50.611Z,10.52
2022-10-08T23:17:19.916Z,10.55
2022-10-08T23:19:46.363Z,10.48
2022-10-08T23:22:12.735Z,10.57
2022-10-08T23:24:39.195Z,10.55
2022-10-08T23:27:09.474Z,10.64
2022-10-08T23:29:36.242Z,10.63
2022-10-08T23:32:02.669Z,10.68
2022-10-08T23:34:29.101Z,10.70
2022-10-08T23:36:55.538Z,10.73
2022-10-08T23:39:22.087Z,10.74
2022-10-08T23:41:48.539Z,10.73
2022-10-08T23:44:15.062Z,10.65
2022-10-08T23:46:41.517Z,10.65
2022-10-08T23:49:08.035Z,10.67
2022-10-08T23:51:34.471Z,10.58
2022-10-08T23:54:03.774Z,10.58
2022-10-08T23:56:30.607Z,10.55
2022-10-08T23:58:57.887Z,10.48
